Time;durP1;ratioP1;P1;durP2;ratioP2;P2;SDS_P1;SDS_P2;PMS_P1;PMS_P2;Temp;Humidity;BMP_temperature;BMP_pressure;BME280_temperature;BME280_humidity;BME280_pressure;Samples;Min_cycle;Max_cycle;Signal;HPM_P1;HPM_P2
2022/10/30 00:00:38;;;;;;;;;10.67;7.00;;;;;25.07;45.86;101512.69;5015075;28;45469;-74
2022/10/30 00:03:03;;;;;;;;;9.67;6.00;;;;;25.07;46.26;101510.03;5014651;28;45462;-75
2022/10/30 00:05:28;;;;;;;;;4.00;4.00;;;;;25.00;46.07;101505.59;5014651;28;45706;-74
2022/10/30 00:07:55;;;;;;;;;8.00;7.33;;;;;25.15;46.09;101524.25;5001075;28;46593;-75
2022/10/30 00:10:20;;;;;;;;;7.67;7.33;;;;;25.15;46.04;101526.91;5014855;28;45398;-74
2022/10/30 00:12:45;;;;;;;;;7.00;4.33;;;;;25.15;46.21;101526.91;5014695;28;45327;-75
2022/10/30 00:15:11;;;;;;;;;6.67;5.67;;;;;25.11;45.78;101517.66;5018058;28;45319;-74
2022/10/30 00:17:36;;;;;;;;;8.00;6.67;;;;;25.04;46.12;101502.41;5027119;28;45848;-75
2022/10/30 00:20:02;;;;;;;;;6.00;6.00;;;;;25.16;45.98;101520.56;5019087;28;45347;-74
2022/10/30 00:22:28;;;;;;;;;5.00;5.00;;;;;25.15;45.89;101517.09;5018425;28;45423;-75
2022/10/30 00:24:53;;;;;;;;;6.00;5.67;;;;;25.05;45.86;101506.72;5017972;28;45292;-74
2022/10/30 00:27:18;;;;;;;;;4.00;3.00;;;;;25.15;46.13;101513.59;5017794;28;45932;-74
2022/10/30 00:29:44;;;;;;;;;5.00;4.33;;;;;25.13;46.05;101504.97;5017791;28;45350;-75
2022/10/30 00:32:09;;;;;;;;;11.00;7.67;;;;;25.16;46.03;101507.25;5018005;28;45844;-74
2022/10/30 00:34:35;;;;;;;;;9.00;6.33;;;;;25.07;45.81;101486.06;5018248;28;45311;-75
2022/10/30 00:37:00;;;;;;;;;6.00;6.00;;;;;25.04;46.09;101485.59;5017808;28;46017;-72
2022/10/30 00:39:25;;;;;;;;;6.00;6.00;;;;;25.12;45.98;101495.31;5018027;28;45286;-75
2022/10/30 00:41:51;;;;;;;;;6.00;6.00;;;;;25.13;45.97;101483.66;5017841;28;45262;-74
2022/10/30 00:44:43;;;;;;;;;4.67;4.67;;;;;25.00;46.03;101461.16;5017702;28;45520;-74
2022/10/30 00:47:39;;;;;;;;;7.00;6.67;;;;;25.15;45.96;101493.13;5017512;28;46401;-75
2022/10/30 00:50:26;;;;;;;;;6.00;6.00;;;;;25.16;45.99;101496.63;5017796;28;45402;-75
2022/10/30 00:53:11;;;;;;;;;10.00;4.67;;;;;25.16;45.98;101501.94;5017777;28;45335;-75
2022/10/30 00:55:45;;;;;;;;;7.33;6.33;;;;;25.15;45.90;101500.28;5017094;28;45323;-74
2022/10/30 00:58:16;;;;;;;;;9.00;8.00;;;;;25.09;46.08;101493.84;5017455;28;46243;-75
2022/10/30 01:00:47;;;;;;;;;5.67;5.67;;;;;25.14;46.03;101511.91;5017498;28;45448;-74
2022/10/30 01:03:14;;;;;;;;;7.67;6.33;;;;;25.09;46.13;101514.31;5017717;28;45378;-73
2022/10/30 01:05:42;;;;;;;;;6.00;5.33;;;;;25.07;45.93;101507.34;5017407;28;45417;-73
2022/10/30 01:08:08;;;;;;;;;8.00;5.33;;;;;25.07;46.03;101499.38;5003304;28;46295;-74
2022/10/30 01:10:33;;;;;;;;;5.67;5.67;;;;;25.15;45.90;101519.75;5017308;28;45538;-74
2022/10/30 01:13:00;;;;;;;;;7.00;7.00;;;;;25.10;45.94;101510.66;5017428;28;45528;-73
2022/10/30 01:15:35;;;;;;;;;6.67;6.67;;;;;25.15;46.05;101518.91;5017460;28;45422;-74
2022/10/30 01:18:26;;;;;;;;;6.33;6.33;;;;;25.14;45.98;101519.91;5025613;28;46085;-73
2022/10/30 01:21:30;;;;;;;;;7.00;7.00;;;;;25.12;46.01;101514.78;5017368;28;45416;-73
2022/10/30 01:24:10;;;;;;;;;9.00;7.00;;;;;25.13;45.99;101513.78;5005780;28;45739;-73
2022/10/30 01:27:00;;;;;;;;;6.33;6.00;;;;;25.13;46.03;101516.44;5016319;28;45454;-74
2022/10/30 01:29:43;;;;;;;;;9.00;9.00;;;;;25.14;46.02;101512.75;5016825;28;46381;-74
2022/10/30 01:32:30;;;;;;;;;5.33;5.33;;;;;25.14;46.06;101498.63;5003976;28;45426;-74
2022/10/30 01:35:09;;;;;;;;;7.00;5.00;;;;;25.13;46.08;101494.31;5016839;28;45347;-73
2022/10/30 01:37:46;;;;;;;;;5.33;4.33;;;;;25.11;45.85;101497.16;5016574;28;45565;-73
2022/10/30 01:40:15;;;;;;;;;8.00;7.00;;;;;25.07;46.06;101499.38;5017014;28;46104;-73
2022/10/30 01:42:45;;;;;;;;;7.00;5.00;;;;;25.12;45.96;101500.63;5016764;28;46016;-73
2022/10/30 01:45:38;;;;;;;;;7.00;7.00;;;;;25.12;46.06;101503.31;5016827;28;45260;-73
2022/10/30 01:48:13;;;;;;;;;6.00;6.00;;;;;25.12;46.13;101522.78;5016880;28;45409;-74
2022/10/30 01:50:50;;;;;;;;;8.00;6.00;;;;;25.11;45.89;101521.09;5016684;28;46180;-73
2022/10/30 01:53:37;;;;;;;;;6.00;6.00;;;;;25.11;45.94;101521.09;5016651;28;45445;-73
2022/10/30 01:56:34;;;;;;;;;7.00;7.00;;;;;25.12;46.02;101519.28;5004645;28;45401;-73
2022/10/30 01:59:12;;;;;;;;;9.33;6.00;;;;;25.12;46.11;101524.59;5016350;28;45518;-73
2022/10/30 02:01:38;;;;;;;;;5.00;5.00;;;;;25.10;46.01;101523.97;5016478;28;45338;-73
2022/10/30 02:04:07;;;;;;;;;8.00;8.00;;;;;25.11;46.02;101517.66;5016440;28;45226;-73
2022/10/30 02:06:32;;;;;;;;;6.33;5.00;;;;;24.99;46.20;101496.78;5010781;28;45691;-73
2022/10/30 02:08:58;;;;;;;;;5.33;4.00;;;;;25.07;45.96;101506.53;5008356;28;45664;-73
2022/10/30 02:11:25;;;;;;;;;9.33;7.67;;;;;25.10;46.12;101505.31;5016510;28;45468;-73
2022/10/30 02:13:54;;;;;;;;;6.67;6.00;;;;;25.12;45.92;101503.31;5016304;28;45439;-74
2022/10/30 02:16:21;;;;;;;;;7.33;6.33;;;;;24.99;46.02;101474.63;5016263;28;45370;-73
2022/10/30 02:18:46;;;;;;;;;5.00;5.00;;;;;25.11;46.12;101493.69;5026286;28;45399;-74
2022/10/30 02:21:12;;;;;;;;;6.33;6.00;;;;;24.80;46.10;101444.94;5015886;28;46274;-73
2022/10/30 02:23:37;;;;;;;;;7.00;7.00;;;;;25.09;45.87;101480.53;5015978;28;45355;-73
2022/10/30 02:26:03;;;;;;;;;5.33;4.67;;;;;25.09;46.00;101488.53;5016567;28;45394;-73
2022/10/30 02:28:28;;;;;;;;;6.00;6.00;;;;;25.09;45.95;101488.53;5016401;28;45387;-73
2022/10/30 02:30:54;;;;;;;;;6.67;4.00;;;;;25.10;45.79;101500.00;5016111;28;45442;-73
2022/10/30 02:33:19;;;;;;;;;7.67;7.67;;;;;25.09;45.90;101491.19;5015956;28;45304;-73
2022/10/30 02:35:44;;;;;;;;;8.33;7.00;;;;;24.96;45.97;101470.50;5015959;28;45330;-74
2022/10/30 02:38:10;;;;;;;;;7.00;7.00;;;;;25.11;45.91;101494.47;5015870;28;45495;-73
2022/10/30 02:40:35;;;;;;;;;7.00;6.00;;;;;24.95;45.95;101474.19;5016023;28;47108;-74
2022/10/30 02:43:00;;;;;;;;;6.33;5.33;;;;;25.02;45.96;101471.66;5015860;28;45626;-74
2022/10/30 02:45:26;;;;;;;;;6.00;5.33;;;;;25.05;45.80;101476.59;5016077;28;45350;-73
2022/10/30 02:47:51;;;;;;;;;7.67;6.00;;;;;24.98;45.95;101465.03;5016377;28;45350;-73
2022/10/30 02:50:16;;;;;;;;;4.67;4.67;;;;;25.10;45.82;101479.53;5015456;28;46355;-73
2022/10/30 02:52:42;;;;;;;;;7.00;7.00;;;;;25.04;45.61;101477.59;5014572;28;46204;-74
2022/10/30 02:55:08;;;;;;;;;4.67;4.67;;;;;25.10;46.03;101478.69;5015966;28;45461;-73
2022/10/30 02:57:33;;;;;;;;;6.33;6.00;;;;;25.11;46.01;101475.84;5015941;28;45281;-73
2022/10/30 02:59:58;;;;;;;;;7.67;5.67;;;;;25.11;45.96;101473.19;5015659;28;47111;-73
2022/10/30 03:02:24;;;;;;;;;6.00;6.00;;;;;25.14;45.92;101477.31;5015458;28;45364;-73
2022/10/30 03:04:49;;;;;;;;;5.67;4.33;;;;;25.12;45.92;101477.50;5015384;28;45402;-74
2022/10/30 03:07:15;;;;;;;;;6.33;5.33;;;;;25.13;46.05;101475.69;5004234;28;45327;-73
2022/10/30 03:09:40;;;;;;;;;7.00;5.00;;;;;25.12;46.04;101471.34;5013161;28;46083;-74
2022/10/30 03:12:05;;;;;;;;;7.67;7.67;;;;;25.01;45.61;101449.50;5015696;28;45461;-73
2022/10/30 03:14:31;;;;;;;;;5.67;5.00;;;;;25.06;45.67;101457.78;5015751;28;45275;-74
2022/10/30 03:16:56;;;;;;;;;7.67;7.00;;;;;25.12;45.86;101456.22;5018932;28;45356;-73
2022/10/30 03:19:22;;;;;;;;;10.67;7.00;;;;;25.01;45.83;101440.72;5021713;28;45363;-73
2022/10/30 03:21:48;;;;;;;;;6.00;4.33;;;;;25.09;45.81;101453.91;5015093;28;45290;-73
2022/10/30 03:24:13;;;;;;;;;4.67;4.00;;;;;25.06;45.76;101435.66;5015337;28;45334;-74
2022/10/30 03:26:39;;;;;;;;;7.00;7.00;;;;;25.12;45.85;101436.75;5015188;28;45568;-73
2022/10/30 03:29:04;;;;;;;;;6.67;6.67;;;;;25.12;45.79;101431.41;5015119;28;45414;-74
2022/10/30 03:31:30;;;;;;;;;5.00;5.00;;;;;25.11;45.99;101421.78;5014763;28;45432;-73
2022/10/30 03:33:55;;;;;;;;;6.67;6.33;;;;;25.04;45.80;101405.72;5015366;28;45390;-73
2022/10/30 03:36:21;;;;;;;;;5.67;5.33;;;;;25.12;46.02;101412.78;5015270;28;45361;-73
2022/10/30 03:38:46;;;;;;;;;5.67;5.67;;;;;25.03;45.92;101396.09;5014996;28;45444;-74
2022/10/30 03:41:11;;;;;;;;;11.67;5.00;;;;;25.11;45.90;101411.94;5015179;28;45404;-73
2022/10/30 03:43:37;;;;;;;;;6.00;6.00;;;;;24.79;45.86;101360.78;5015078;28;45381;-73
2022/10/30 03:46:02;;;;;;;;;8.67;5.67;;;;;25.06;46.20;101412.50;5015359;28;45350;-73
2022/10/30 03:48:28;;;;;;;;;5.67;5.00;;;;;25.06;45.79;101407.19;5013949;28;47152;-73
2022/10/30 03:50:56;;;;;;;;;5.33;5.33;;;;;25.07;45.81;101408.84;5018806;28;45359;-73
2022/10/30 03:53:24;;;;;;;;;7.33;5.33;;;;;25.09;45.91;101406.00;5018794;28;45314;-73
2022/10/30 03:55:51;;;;;;;;;6.00;6.00;;;;;25.04;45.73;101393.25;5018603;28;45387;-73
2022/10/30 03:58:16;;;;;;;;;6.00;6.00;;;;;25.03;46.07;101390.78;5017141;28;47083;-74
2022/10/30 04:00:41;;;;;;;;;6.00;6.00;;;;;25.08;45.93;101391.03;5018379;28;45417;-74
2022/10/30 04:03:08;;;;;;;;;6.00;6.00;;;;;25.00;46.00;101383.13;5018398;28;45383;-73
2022/10/30 04:05:34;;;;;;;;;8.00;7.67;;;;;25.07;46.04;101392.88;5018312;28;45426;-74
2022/10/30 04:08:04;;;;;;;;;6.33;6.00;;;;;25.09;45.94;101387.34;5004386;28;47305;-73
2022/10/30 04:10:29;;;;;;;;;7.00;7.00;;;;;25.09;45.76;101383.84;5018529;28;45268;-73
2022/10/30 04:13:03;;;;;;;;;6.00;6.00;;;;;25.03;45.47;101377.47;5018287;28;45382;-74
2022/10/30 04:15:29;;;;;;;;;7.00;4.67;;;;;25.00;45.72;101383.97;5018448;28;45430;-73
2022/10/30 04:17:54;;;;;;;;;6.00;6.00;;;;;24.98;46.03;101371.84;5027923;28;46512;-73
2022/10/30 04:20:21;;;;;;;;;5.00;5.00;;;;;25.09;45.74;101381.19;5018241;28;45381;-74
2022/10/30 04:22:47;;;;;;;;;6.33;6.33;;;;;25.04;45.87;101371.94;5018061;28;45298;-73
2022/10/30 04:25:13;;;;;;;;;8.00;7.00;;;;;25.09;45.70;101367.88;5018213;28;45288;-73
2022/10/30 04:27:42;;;;;;;;;5.00;5.00;;;;;25.09;45.65;101375.88;5018067;28;46313;-73
2022/10/30 04:30:10;;;;;;;;;7.00;7.00;;;;;24.97;46.10;101360.38;5017587;28;45460;-74
2022/10/30 04:32:35;;;;;;;;;5.67;5.33;;;;;25.08;45.89;101393.72;5018058;28;45401;-73
2022/10/30 04:35:02;;;;;;;;;5.33;5.00;;;;;25.07;45.72;101408.03;5017709;28;45461;-73
2022/10/30 04:37:28;;;;;;;;;7.00;7.00;;;;;25.09;45.94;101424.63;5017884;28;46211;-74
2022/10/30 04:39:53;;;;;;;;;7.67;7.00;;;;;24.98;45.90;101409.13;5017969;28;45991;-74
2022/10/30 04:42:18;;;;;;;;;7.67;5.33;;;;;25.09;45.94;101429.13;5017894;28;45453;-74
2022/10/30 04:44:44;;;;;;;;;6.33;6.33;;;;;25.11;45.87;101453.75;5018057;28;45409;-74
2022/10/30 04:47:09;;;;;;;;;7.00;5.33;;;;;25.11;45.87;101459.88;5017776;28;46972;-73
2022/10/30 04:49:34;;;;;;;;;7.00;5.00;;;;;25.11;45.86;101456.41;5017682;28;45477;-74
2022/10/30 04:51:59;;;;;;;;;6.33;6.00;;;;;25.11;45.94;101448.41;5018166;28;45387;-74
2022/10/30 04:54:26;;;;;;;;;7.00;6.00;;;;;25.01;45.84;101422.91;5017769;28;45624;-73
2022/10/30 04:56:51;;;;;;;;;6.33;5.00;;;;;24.99;45.47;101410.75;5017436;28;46951;-73
2022/10/30 04:59:17;;;;;;;;;7.00;7.00;;;;;25.11;46.05;101427.91;5017715;28;45513;-74
2022/10/30 05:01:42;;;;;;;;;7.67;7.00;;;;;25.01;45.84;101403.47;5016299;28;45566;-73
2022/10/30 05:04:08;;;;;;;;;6.00;5.33;;;;;25.11;45.89;101413.81;5016183;28;45425;-74
2022/10/30 05:06:33;;;;;;;;;7.00;5.00;;;;;24.99;45.75;101408.09;5011700;28;45377;-73
2022/10/30 05:08:58;;;;;;;;;5.00;4.67;;;;;25.07;45.91;101424.81;5009466;28;45690;-73
2022/10/30 05:11:24;;;;;;;;;7.00;7.00;;;;;25.09;45.79;101408.66;5017566;28;45346;-74
2022/10/30 05:13:49;;;;;;;;;7.00;6.00;;;;;25.05;45.71;101402.91;5017909;28;45311;-74
2022/10/30 05:16:15;;;;;;;;;6.00;6.00;;;;;25.10;45.94;101418.31;5016809;28;46309;-73
2022/10/30 05:18:40;;;;;;;;;5.00;5.00;;;;;25.04;45.72;101411.06;5027251;28;45348;-74
2022/10/30 05:21:05;;;;;;;;;7.33;5.00;;;;;25.09;45.86;101421.97;5017565;28;45452;-73
2022/10/30 05:23:31;;;;;;;;;9.00;8.00;;;;;25.11;45.83;101421.78;5017086;28;45437;-73
2022/10/30 05:25:59;;;;;;;;;7.00;5.00;;;;;25.11;45.67;101416.47;5016060;28;46317;-73
2022/10/30 05:28:24;;;;;;;;;10.33;7.00;;;;;25.07;45.55;101406.19;5017192;28;45466;-73
2022/10/30 05:30:52;;;;;;;;;6.00;5.00;;;;;25.09;45.86;101411.31;5016654;28;45431;-74
2022/10/30 05:33:18;;;;;;;;;5.67;5.67;;;;;25.03;45.74;101422.72;5017092;28;45494;-73
2022/10/30 05:35:43;;;;;;;;;5.00;5.00;;;;;25.09;45.80;101442.44;5016880;28;46266;-73
2022/10/30 05:38:09;;;;;;;;;6.67;6.67;;;;;25.09;45.97;101439.78;5015790;28;45435;-74
2022/10/30 05:40:34;;;;;;;;;6.00;5.00;;;;;25.07;45.85;101434.66;5017580;28;45554;-73
2022/10/30 05:43:00;;;;;;;;;6.33;6.33;;;;;25.05;46.24;101444.66;5016960;28;45460;-73
2022/10/30 05:45:25;;;;;;;;;6.00;6.00;;;;;25.07;46.03;101451.44;5016333;28;46265;-74
2022/10/30 05:48:08;;;;;;;;;6.67;6.67;;;;;25.07;45.81;101461.25;5017079;28;45323;-74
2022/10/30 05:50:34;;;;;;;;;4.33;4.33;;;;;25.06;45.82;101467.59;5017105;28;45430;-73
2022/10/30 05:53:02;;;;;;;;;5.00;5.00;;;;;25.02;45.70;101456.50;5016827;28;45319;-74
2022/10/30 05:55:28;;;;;;;;;7.00;7.00;;;;;25.04;45.66;101466.97;5016817;28;45414;-74
2022/10/30 05:57:58;;;;;;;;;6.00;5.00;;;;;25.03;45.88;101471.44;5016742;28;45349;-73
2022/10/30 06:00:25;;;;;;;;;6.67;4.67;;;;;24.97;45.69;101458.88;5016378;28;45381;-73
2022/10/30 06:02:51;;;;;;;;;7.00;6.00;;;;;25.04;46.06;101466.97;5016622;28;45336;-73
2022/10/30 06:05:16;;;;;;;;;7.00;5.67;;;;;24.82;45.98;101432.28;5016773;28;45442;-74
2022/10/30 06:07:42;;;;;;;;;6.00;6.00;;;;;24.98;45.65;101465.84;5002401;28;45272;-74
2022/10/30 06:10:07;;;;;;;;;7.67;6.67;;;;;25.05;45.80;101474.78;5016686;28;45424;-75
2022/10/30 06:12:33;;;;;;;;;7.00;6.00;;;;;25.05;46.08;101472.13;5016071;28;45239;-74
2022/10/30 06:14:58;;;;;;;;;7.67;6.00;;;;;25.00;45.90;101468.31;5015718;28;48607;-74
2022/10/30 06:17:23;;;;;;;;;6.33;6.00;;;;;25.06;45.72;101496.88;5023522;28;45403;-74
2022/10/30 06:19:49;;;;;;;;;5.00;3.00;;;;;24.94;45.94;101483.19;5019442;28;45326;-75
2022/10/30 06:22:14;;;;;;;;;7.67;6.33;;;;;25.04;45.83;101507.72;5016158;28;45396;-75
2022/10/30 06:24:39;;;;;;;;;8.67;7.00;;;;;25.04;45.80;101513.03;5016329;28;46300;-74
2022/10/30 06:27:05;;;;;;;;;7.67;7.00;;;;;25.04;46.04;101513.03;5016545;28;46309;-74
2022/10/30 06:29:30;;;;;;;;;6.00;5.00;;;;;24.96;46.00;101492.63;5015767;28;45776;-75
2022/10/30 06:31:55;;;;;;;;;2.00;2.00;;;;;24.94;45.79;101489.34;5015911;28;49846;-75
2022/10/30 06:34:20;;;;;;;;;8.67;7.33;;;;;24.93;45.78;101473.56;5015681;28;51359;-74
2022/10/30 06:36:46;;;;;;;;;2.33;2.00;;;;;25.06;45.56;101492.38;5015873;28;49316;-75
2022/10/30 06:39:11;;;;;;;;;9.00;6.00;;;;;25.05;45.86;101488.09;5016171;28;45279;-74
2022/10/30 06:41:36;;;;;;;;;5.00;5.00;;;;;25.07;45.88;101498.53;5016223;28;45315;-75
2022/10/30 06:44:02;;;;;;;;;5.67;4.67;;;;;25.07;45.92;101499.38;5015696;28;45367;-75
2022/10/30 06:46:27;;;;;;;;;5.33;4.00;;;;;24.94;45.79;101472.53;5016119;28;45622;-75
2022/10/30 06:48:52;;;;;;;;;5.67;5.67;;;;;25.09;45.93;101487.69;5016168;28;45674;-75
2022/10/30 06:51:18;;;;;;;;;6.67;6.00;;;;;25.07;46.04;101491.38;5014680;28;46004;-74
2022/10/30 06:53:43;;;;;;;;;7.00;7.00;;;;;25.02;45.93;101490.28;5015579;28;45365;-75
2022/10/30 06:56:08;;;;;;;;;5.00;4.00;;;;;25.02;45.84;101487.63;5015917;28;45419;-74
2022/10/30 06:58:37;;;;;;;;;5.67;5.67;;;;;24.92;45.77;101462.09;5015535;28;45272;-74
2022/10/30 07:01:03;;;;;;;;;6.67;2.00;;;;;24.93;45.71;101462.91;5015800;28;45565;-74
2022/10/30 07:03:29;;;;;;;;;5.00;5.00;;;;;25.07;45.74;101477.25;5015557;28;45628;-74
2022/10/30 07:05:54;;;;;;;;;6.00;5.00;;;;;25.07;45.96;101470.09;5015144;28;45440;-74
2022/10/30 07:08:19;;;;;;;;;5.67;5.67;;;;;25.01;45.77;101465.50;5002384;28;45565;-74
2022/10/30 07:10:45;;;;;;;;;6.00;6.00;;;;;25.06;45.79;101479.06;5016170;28;45378;-74
2022/10/30 07:13:10;;;;;;;;;7.00;6.00;;;;;25.06;46.01;101478.25;5014866;28;45367;-75
2022/10/30 07:15:36;;;;;;;;;7.67;5.00;;;;;24.99;45.85;101462.16;5015733;28;45547;-74
2022/10/30 07:18:02;;;;;;;;;6.33;5.33;;;;;25.05;45.67;101464.13;5025553;28;45385;-74
2022/10/30 07:20:30;;;;;;;;;6.00;6.00;;;;;25.05;46.01;101469.44;5015769;28;45346;-75
2022/10/30 07:22:55;;;;;;;;;5.33;5.00;;;;;25.06;45.76;101480.91;5014095;28;45393;-75
2022/10/30 07:25:21;;;;;;;;;5.00;5.00;;;;;24.96;46.06;101462.53;5015122;28;45307;-75
2022/10/30 07:27:49;;;;;;;;;6.00;5.00;;;;;25.02;45.91;101483.13;5015376;28;45372;-75
2022/10/30 07:30:16;;;;;;;;;6.33;6.33;;;;;25.06;45.81;101487.06;5015132;28;45276;-75
2022/10/30 07:32:42;;;;;;;;;5.33;5.33;;;;;25.06;45.79;101481.72;5015087;28;46516;-74
2022/10/30 07:35:10;;;;;;;;;5.67;5.00;;;;;25.04;45.63;101478.44;5015222;28;45397;-75
2022/10/30 07:37:36;;;;;;;;;7.67;4.00;;;;;25.04;45.73;101488.25;5015145;28;45330;-74
2022/10/30 07:40:02;;;;;;;;;4.67;4.00;;;;;24.93;45.33;101486.88;5014918;28;45439;-76
2022/10/30 07:42:27;;;;;;;;;6.00;6.00;;;;;25.00;45.69;101498.44;5015226;28;45430;-75
2022/10/30 07:44:52;;;;;;;;;4.67;3.33;;;;;24.99;45.85;101502.09;5015150;28;45439;-74
2022/10/30 07:47:18;;;;;;;;;6.67;5.33;;;;;24.99;46.01;101507.41;5015363;28;45453;-74
2022/10/30 07:49:43;;;;;;;;;7.00;6.67;;;;;24.56;45.82;101452.19;5013881;28;45445;-75
2022/10/30 07:52:08;;;;;;;;;6.67;4.67;;;;;25.00;45.84;101535.69;5014964;28;46285;-75
2022/10/30 07:54:34;;;;;;;;;7.00;5.00;;;;;24.90;45.92;101538.63;5014835;28;45354;-75
2022/10/30 07:56:59;;;;;;;;;6.33;6.00;;;;;25.00;45.55;101556.16;5015115;28;45282;-74
2022/10/30 07:59:24;;;;;;;;;6.33;5.00;;;;;24.99;45.70;101565.16;5015156;28;48091;-75
2022/10/30 08:01:50;;;;;;;;;7.67;6.00;;;;;25.01;45.98;101573.84;5014940;28;45582;-75
2022/10/30 08:04:16;;;;;;;;;5.00;5.00;;;;;24.93;45.87;101569.41;5013347;28;45420;-75
2022/10/30 08:06:42;;;;;;;;;2.33;2.33;;;;;25.02;45.71;101583.44;5015078;28;45422;-75
2022/10/30 08:09:07;;;;;;;;;6.00;3.67;;;;;24.99;45.60;101573.97;5013349;28;45437;-74
2022/10/30 08:11:32;;;;;;;;;10.67;7.33;;;;;25.02;45.83;101583.44;5014647;28;46084;-75
2022/10/30 08:13:58;;;;;;;;;7.67;6.00;;;;;24.98;45.84;101575.00;5015006;28;45406;-74
2022/10/30 08:16:24;;;;;;;;;5.67;5.00;;;;;24.56;45.74;101503.56;5014668;28;45427;-75
2022/10/30 08:18:49;;;;;;;;;9.00;7.33;;;;;25.00;46.30;101570.31;5024680;28;45348;-75
2022/10/30 08:21:15;;;;;;;;;6.67;5.00;;;;;24.96;45.73;101575.16;5014696;28;46521;-75
2022/10/30 08:23:40;;;;;;;;;6.00;6.00;;;;;24.99;45.64;101576.63;5013981;28;45291;-75
2022/10/30 08:26:05;;;;;;;;;5.33;4.33;;;;;25.01;45.89;101581.81;5014758;28;45358;-75
2022/10/30 08:28:32;;;;;;;;;6.00;5.00;;;;;25.04;45.92;101598.25;5014742;28;45359;-75
2022/10/30 08:30:58;;;;;;;;;5.67;4.33;;;;;25.03;45.96;101607.22;5014349;28;45307;-75
2022/10/30 08:33:24;;;;;;;;;5.00;5.00;;;;;25.05;45.75;101625.69;5014242;28;45276;-75
2022/10/30 08:35:51;;;;;;;;;5.67;5.67;;;;;25.04;45.77;101630.19;5017180;28;45424;-74
2022/10/30 08:38:17;;;;;;;;;7.33;6.67;;;;;25.02;46.00;101610.91;5017575;28;45303;-75
2022/10/30 08:40:43;;;;;;;;;6.00;5.33;;;;;24.94;45.58;101584.34;5017960;28;46353;-74
2022/10/30 08:43:09;;;;;;;;;5.00;5.00;;;;;25.05;45.58;101596.41;5017815;28;45477;-74
2022/10/30 08:45:35;;;;;;;;;6.00;6.00;;;;;24.93;45.76;101564.06;5017830;28;45494;-74
2022/10/30 08:48:03;;;;;;;;;5.33;5.33;;;;;25.03;45.89;101571.81;5018270;28;45513;-75
2022/10/30 08:50:29;;;;;;;;;5.00;5.00;;;;;25.01;46.00;101579.16;5017621;28;46382;-75
2022/10/30 08:52:55;;;;;;;;;5.00;5.00;;;;;24.96;45.88;101580.47;5017286;28;45507;-75
2022/10/30 08:55:20;;;;;;;;;7.00;5.00;;;;;24.92;45.60;101576.53;5017748;28;45345;-75
2022/10/30 08:57:45;;;;;;;;;6.00;6.00;;;;;25.03;45.85;101601.91;5017778;28;45324;-75
2022/10/30 09:00:12;;;;;;;;;5.00;5.00;;;;;25.04;45.76;101608.06;5017470;28;46161;-75
2022/10/30 09:02:40;;;;;;;;;9.00;6.33;;;;;25.05;45.80;101599.06;5017528;28;45394;-75
2022/10/30 09:05:07;;;;;;;;;6.33;5.00;;;;;24.96;45.82;101577.00;5017691;28;45307;-74
2022/10/30 09:07:33;;;;;;;;;8.00;7.00;;;;;24.98;45.70;101564.34;5003100;28;45470;-75
2022/10/30 09:09:58;;;;;;;;;5.67;5.67;;;;;25.05;45.68;101570.63;5017473;28;46141;-75
2022/10/30 09:12:24;;;;;;;;;5.67;4.33;;;;;24.99;45.97;101555.34;5017452;28;45329;-75
2022/10/30 09:14:49;;;;;;;;;7.00;6.00;;;;;25.01;45.84;101553.34;5017379;28;45275;-74
2022/10/30 09:17:14;;;;;;;;;5.00;5.00;;;;;25.04;45.86;101552.97;5023486;28;45432;-74
2022/10/30 09:19:40;;;;;;;;;7.00;6.00;;;;;24.98;45.86;101531.56;5021308;28;45296;-74
2022/10/30 09:22:05;;;;;;;;;4.67;4.67;;;;;25.04;45.71;101539.66;5016943;28;45483;-75
2022/10/30 09:24:31;;;;;;;;;5.00;5.00;;;;;25.02;45.93;101535.53;5017380;28;45719;-74
2022/10/30 09:26:56;;;;;;;;;4.00;3.00;;;;;24.95;45.75;101533.59;5017193;28;45544;-75
2022/10/30 09:29:22;;;;;;;;;6.00;6.00;;;;;25.02;45.85;101562.16;5017121;28;47057;-75
2022/10/30 09:31:47;;;;;;;;;6.33;4.33;;;;;24.93;45.53;101562.22;5017081;28;45304;-75
2022/10/30 09:34:12;;;;;;;;;4.33;4.33;;;;;25.01;45.85;101579.97;5017293;28;45216;-74
2022/10/30 09:36:38;;;;;;;;;7.33;6.00;;;;;24.99;45.75;101584.63;5016737;28;45340;-74
2022/10/30 09:39:03;;;;;;;;;6.33;5.33;;;;;25.00;45.92;101582.78;5016989;28;45354;-75
2022/10/30 09:41:34;;;;;;;;;5.00;5.00;;;;;25.03;45.91;101591.25;5016821;28;45341;-75
2022/10/30 09:44:23;;;;;;;;;5.00;5.00;;;;;24.99;45.83;101597.09;5003439;28;45283;-74
2022/10/30 09:47:07;;;;;;;;;7.67;6.33;;;;;25.04;45.96;101614.22;5015909;28;45397;-75
2022/10/30 09:49:55;;;;;;;;;6.00;6.00;;;;;25.03;45.53;101620.53;5016599;28;45659;-75
2022/10/30 09:52:27;;;;;;;;;9.00;6.33;;;;;25.02;45.69;101631.38;5028657;28;45442;-74
2022/10/30 09:55:01;;;;;;;;;7.33;5.00;;;;;25.04;45.89;101648.00;5016710;28;45347;-75
2022/10/30 09:57:32;;;;;;;;;5.00;5.00;;;;;25.02;45.89;101644.69;5016873;28;45433;-74
2022/10/30 10:00:12;;;;;;;;;4.67;4.67;;;;;24.94;46.21;101633.09;5016709;28;46022;-74
2022/10/30 10:02:59;;;;;;;;;5.00;3.67;;;;;24.93;45.73;101623.44;5016406;28;45353;-74
2022/10/30 10:05:28;;;;;;;;;6.33;4.67;;;;;25.01;45.77;101630.53;5016287;28;45428;-75
2022/10/30 10:08:03;;;;;;;;;6.33;5.33;;;;;24.96;45.89;101622.25;5002699;28;45493;-75
2022/10/30 10:10:39;;;;;;;;;5.00;4.00;;;;;25.04;45.92;101630.19;5016349;28;46417;-75
2022/10/30 10:13:21;;;;;;;;;5.00;5.00;;;;;24.96;45.92;101630.22;5016225;28;45346;-75
2022/10/30 10:15:52;;;;;;;;;7.00;7.00;;;;;25.04;45.84;101626.69;5016632;28;45496;-74
2022/10/30 10:18:28;;;;;;;;;7.00;7.00;;;;;25.07;45.77;101615.69;5026378;28;45385;-75
2022/10/30 10:20:59;;;;;;;;;7.00;5.33;;;;;25.07;45.86;101608.53;5016002;28;45512;-75
2022/10/30 10:23:47;;;;;;;;;6.00;5.00;;;;;25.09;45.83;101612.81;5015978;28;45356;-75
2022/10/30 10:26:22;;;;;;;;;6.00;6.00;;;;;25.07;45.50;101632.50;5016240;28;45410;-74
2022/10/30 10:29:20;;;;;;;;;7.33;4.00;;;;;25.07;45.69;101647.63;5016369;28;45356;-74
2022/10/30 10:32:05;;;;;;;;;6.67;6.00;;;;;25.09;45.69;101650.09;5013245;28;46305;-75
2022/10/30 10:34:45;;;;;;;;;8.67;6.00;;;;;25.07;45.99;101653.78;5015730;28;45426;-75
2022/10/30 10:37:11;;;;;;;;;5.00;5.00;;;;;25.07;45.78;101651.13;5002257;28;45339;-74
2022/10/30 10:39:45;;;;;;;;;7.00;6.33;;;;;25.09;45.73;101636.78;5015796;28;45518;-75
2022/10/30 10:42:35;;;;;;;;;4.00;4.00;;;;;25.08;46.04;101643.97;5015907;28;46161;-74
2022/10/30 10:45:00;;;;;;;;;6.00;4.67;;;;;25.07;46.08;101642.31;5015648;28;45390;-74
2022/10/30 10:47:31;;;;;;;;;6.00;6.00;;;;;25.08;45.87;101646.63;5016093;28;45390;-75
2022/10/30 10:49:59;;;;;;;;;6.00;5.00;;;;;25.09;45.94;101639.44;5015973;28;45641;-74
2022/10/30 10:52:39;;;;;;;;;5.67;5.00;;;;;25.07;45.70;101636.97;5015546;28;47313;-75
2022/10/30 10:55:20;;;;;;;;;5.00;5.00;;;;;25.02;45.89;101615.41;5015750;28;45308;-74
2022/10/30 10:57:47;;;;;;;;;5.00;5.00;;;;;24.96;45.82;101583.16;5003434;28;45315;-74
2022/10/30 11:00:16;;;;;;;;;6.67;5.00;;;;;25.00;45.70;101590.78;5015640;28;45306;-75
2022/10/30 11:02:50;;;;;;;;;5.67;5.67;;;;;25.07;45.74;101623.66;5015244;28;46618;-75
2022/10/30 11:05:19;;;;;;;;;5.00;5.00;;;;;25.07;45.47;101634.31;5015364;28;45349;-74
2022/10/30 11:07:48;;;;;;;;;6.00;6.00;;;;;24.96;45.78;101616.91;5001653;28;45359;-74
2022/10/30 11:10:17;;;;;;;;;7.33;6.00;;;;;25.05;45.80;101623.88;5015603;28;45277;-74
2022/10/30 11:12:42;;;;;;;;;5.33;4.00;;;;;25.06;46.03;101609.53;5015261;28;46923;-75
2022/10/30 11:15:36;;;;;;;;;6.00;6.00;;;;;25.07;45.97;101583.72;5015408;28;45331;-74
2022/10/30 11:18:07;;;;;;;;;5.67;5.67;;;;;25.06;45.81;101582.06;5025470;28;45552;-75
2022/10/30 11:20:42;;;;;;;;;3.67;3.67;;;;;25.05;45.71;101586.59;5014464;28;45369;-75
2022/10/30 11:23:34;;;;;;;;;6.00;6.00;;;;;25.05;45.81;101591.09;5014934;28;45596;-74
2022/10/30 11:26:22;;;;;;;;;6.00;4.67;;;;;25.06;46.10;101606.03;5015507;28;45390;-74
2022/10/30 11:28:49;;;;;;;;;5.00;5.00;;;;;25.04;45.73;101608.88;5015360;28;45486;-74
2022/10/30 11:31:33;;;;;;;;;5.00;5.00;;;;;25.07;45.82;101613.03;5015409;28;45248;-74